createdAt,value
2022-08-25T00:00:04.344Z,6.50
2022-08-25T00:05:32.211Z,8.15
2022-08-25T00:10:40.720Z,9.02
2022-08-25T00:15:48.208Z,7.63
2022-08-25T00:20:55.147Z,14.05
2022-08-25T00:26:00.796Z,14.45
2022-08-25T00:31:08.378Z,6.15
2022-08-25T00:36:13.934Z,10.07
2022-08-25T00:41:21.880Z,7.75
2022-08-25T00:46:31.825Z,11.80
2022-08-25T00:51:43.220Z,6.00
2022-08-25T00:56:49.344Z,7.10
2022-08-25T01:01:57.994Z,10.15
2022-08-25T01:07:04.535Z,5.72
2022-08-25T01:12:10.829Z,11.98
2022-08-25T01:17:18.402Z,10.10
2022-08-25T01:22:27.016Z,11.23
2022-08-25T01:32:38.292Z,7.65
2022-08-25T01:37:45.609Z,14.55
2022-08-25T01:43:00.476Z,9.20
2022-08-25T01:48:08.529Z,15.65
2022-08-25T01:53:20.711Z,10.17
2022-08-25T01:58:30.211Z,7.43
2022-08-25T02:03:42.122Z,8.50
2022-08-25T02:08:52.974Z,12.85
2022-08-25T02:13:59.614Z,11.32
2022-08-25T02:19:07.256Z,8.38
2022-08-25T02:24:15.225Z,8.20
2022-08-25T02:29:23.146Z,9.10
2022-08-25T02:34:28.652Z,13.57
2022-08-25T02:39:35.673Z,10.20
2022-08-25T02:44:42.710Z,9.18
2022-08-25T02:49:48.786Z,7.63
2022-08-25T02:54:56.123Z,17.05
2022-08-25T03:00:01.934Z,13.55
2022-08-25T03:05:09.683Z,9.88
2022-08-25T03:10:20.031Z,12.20
2022-08-25T03:15:28.004Z,12.15
2022-08-25T03:20:37.143Z,13.75
2022-08-25T03:26:02.136Z,12.63
2022-08-25T03:31:08.106Z,9.95
2022-08-25T03:36:13.864Z,7.53
2022-08-25T03:41:23.014Z,15.13
2022-08-25T03:46:31.250Z,15.32
2022-08-25T03:51:40.813Z,9.25
2022-08-25T03:56:48.774Z,9.10
2022-08-25T04:01:55.505Z,12.63
2022-08-25T04:07:01.145Z,13.15
2022-08-25T04:12:09.438Z,8.52
2022-08-25T04:17:15.070Z,8.63
2022-08-25T04:22:20.811Z,13.07
2022-08-25T04:27:27.838Z,18.40
2022-08-25T04:32:33.704Z,11.15
2022-08-25T04:37:40.261Z,14.20
2022-08-25T04:42:48.131Z,14.73
2022-08-25T04:47:55.183Z,14.82
2022-08-25T04:53:01.684Z,14.35
2022-08-25T04:58:14.639Z,12.27
2022-08-25T05:03:22.215Z,9.55
2022-08-25T05:08:28.086Z,9.45
2022-08-25T05:13:35.976Z,9.18
2022-08-25T05:18:42.010Z,10.48
2022-08-25T05:23:48.085Z,11.57
2022-08-25T05:28:56.415Z,16.85
2022-08-25T05:34:02.861Z,13.80
2022-08-25T05:39:08.460Z,16.88
2022-08-25T05:44:20.539Z,15.73
2022-08-25T05:49:27.775Z,15.52
2022-08-25T05:54:33.353Z,12.13
2022-08-25T05:59:40.293Z,15.38
2022-08-25T06:04:46.107Z,15.02
2022-08-25T06:09:51.698Z,14.32
2022-08-25T06:14:58.956Z,16.00
2022-08-25T06:20:06.001Z,24.92
2022-08-25T06:25:14.805Z,16.55
2022-08-25T06:30:24.500Z,13.00
2022-08-25T06:35:34.643Z,20.55
2022-08-25T06:40:40.932Z,15.15
2022-08-25T06:45:48.812Z,18.52
2022-08-25T06:50:54.589Z,16.43
2022-08-25T06:56:05.935Z,17.33
2022-08-25T07:01:19.637Z,16.13
2022-08-25T07:06:28.085Z,12.55
2022-08-25T07:11:35.931Z,18.67
2022-08-25T07:16:48.582Z,18.95
2022-08-25T07:21:55.667Z,19.45
2022-08-25T07:27:01.428Z,14.45
2022-08-25T07:32:08.796Z,17.30
2022-08-25T07:37:27.560Z,20.88
2022-08-25T07:42:42.349Z,9.90
2022-08-25T07:47:51.581Z,17.63
2022-08-25T07:52:58.003Z,19.02
2022-08-25T07:58:04.619Z,16.88
2022-08-25T08:03:19.810Z,20.75
2022-08-25T08:13:44.367Z,21.30
2022-08-25T08:18:51.812Z,17.83
2022-08-25T08:23:59.156Z,16.00
2022-08-25T08:29:04.705Z,13.18
2022-08-25T08:34:13.841Z,19.38
2022-08-25T08:39:19.466Z,24.83
2022-08-25T08:44:29.788Z,24.92
2022-08-25T08:49:46.262Z,17.92
2022-08-25T08:54:57.826Z,22.33
2022-08-25T09:00:06.487Z,13.32
2022-08-25T09:05:19.577Z,15.52
2022-08-25T09:10:26.704Z,17.52
2022-08-25T09:15:58.302Z,21.10
2022-08-25T09:21:11.172Z,20.27
2022-08-25T09:26:27.693Z,21.70
2022-08-25T09:31:35.911Z,16.40
2022-08-25T09:41:52.708Z,16.50
2022-08-25T09:47:03.280Z,18.08
2022-08-25T09:52:37.319Z,17.27
2022-08-25T09:57:47.791Z,19.55
2022-08-25T10:03:12.153Z,21.48
2022-08-25T10:08:31.738Z,16.65
2022-08-25T10:13:42.580Z,16.70
2022-08-25T10:19:02.804Z,22.33
2022-08-25T10:24:12.188Z,14.68
2022-08-25T10:29:28.177Z,26.98
2022-08-25T10:34:46.387Z,13.18
2022-08-25T10:40:06.973Z,21.30
2022-08-25T10:45:40.476Z,16.98
2022-08-25T10:50:50.643Z,16.00
2022-08-25T10:56:07.178Z,15.38
2022-08-25T11:01:20.117Z,22.08
2022-08-25T11:06:41.260Z,22.35
2022-08-25T11:11:52.171Z,20.35
2022-08-25T11:17:02.690Z,20.45
2022-08-25T11:22:15.527Z,16.17
2022-08-25T11:27:30.497Z,19.85
2022-08-25T11:32:36.509Z,11.93
2022-08-25T11:37:47.972Z,19.42
2022-08-25T11:43:03.823Z,17.60
2022-08-25T11:48:23.920Z,34.67
2022-08-25T11:53:31.374Z,18.15
2022-08-25T11:58:45.207Z,17.73
2022-08-25T12:04:16.420Z,12.13
2022-08-25T12:09:23.907Z,15.30
2022-08-25T12:14:48.579Z,10.10
2022-08-25T12:20:00.868Z,20.63
2022-08-25T12:25:11.893Z,16.00
2022-08-25T12:30:23.728Z,15.82
2022-08-25T12:35:34.238Z,13.13
2022-08-25T12:40:59.162Z,10.93
2022-08-25T12:46:38.442Z,13.07
2022-08-25T12:51:57.395Z,9.80
2022-08-25T12:57:25.083Z,7.45
2022-08-25T13:03:13.916Z,7.57
2022-08-25T13:08:47.039Z,7.90
2022-08-25T13:13:56.869Z,11.80
2022-08-25T13:19:07.728Z,4.60
2022-08-25T13:24:19.073Z,9.77
2022-08-25T13:29:28.127Z,10.73
2022-08-25T13:34:37.803Z,8.05
2022-08-25T13:39:56.626Z,7.80
2022-08-25T13:45:06.354Z,6.20
2022-08-25T13:50:21.693Z,6.28
2022-08-25T13:55:38.306Z,5.25
2022-08-25T14:01:23.296Z,9.18
2022-08-25T14:06:37.313Z,9.48
2022-08-25T14:11:45.803Z,5.13
2022-08-25T14:16:57.386Z,5.63
2022-08-25T14:22:05.328Z,6.38
2022-08-25T14:27:11.919Z,6.97
2022-08-25T14:32:18.209Z,8.10
2022-08-25T14:37:25.960Z,7.63
2022-08-25T14:42:31.501Z,3.78
2022-08-25T14:47:36.917Z,6.72
2022-08-25T14:52:44.845Z,6.15
2022-08-25T15:02:56.921Z,4.70
2022-08-25T15:08:20.899Z,5.25
2022-08-25T15:13:28.326Z,4.07
2022-08-25T15:18:34.145Z,7.53
2022-08-25T15:23:41.501Z,3.72
2022-08-25T15:28:51.627Z,3.92
2022-08-25T15:33:57.974Z,8.13
2022-08-25T15:39:06.506Z,8.13
2022-08-25T15:44:12.472Z,6.38
2022-08-25T15:49:23.126Z,6.45
2022-08-25T15:54:31.254Z,4.45
2022-08-25T15:59:40.217Z,5.03
2022-08-25T16:04:47.291Z,6.75
2022-08-25T16:09:57.223Z,6.90
2022-08-25T16:15:03.721Z,3.45
2022-08-25T16:20:13.899Z,4.53
2022-08-25T16:25:21.527Z,6.35
2022-08-25T16:30:27.203Z,5.47
2022-08-25T16:35:33.639Z,7.15
2022-08-25T16:40:44.359Z,6.72
2022-08-25T16:51:08.509Z,7.80
2022-08-25T16:56:17.076Z,12.27
2022-08-25T17:01:23.562Z,6.10
2022-08-25T17:06:31.176Z,5.20
2022-08-25T17:11:45.619Z,7.63
2022-08-25T17:16:54.981Z,7.85
2022-08-25T17:22:00.842Z,8.00
2022-08-25T17:27:08.461Z,6.25
2022-08-25T17:32:14.136Z,8.47
2022-08-25T17:37:20.360Z,5.55
2022-08-25T17:42:30.208Z,8.20
2022-08-25T17:47:36.869Z,5.72
2022-08-25T17:52:42.694Z,5.68
2022-08-25T17:57:49.967Z,5.90
2022-08-25T18:02:57.558Z,14.43
2022-08-25T18:08:04.389Z,17.77
2022-08-25T18:13:18.054Z,22.95
2022-08-25T18:18:24.917Z,19.70
2022-08-25T18:23:30.820Z,18.58
2022-08-25T18:28:38.110Z,40.40
2022-08-25T18:33:45.300Z,21.50
2022-08-25T18:39:09.003Z,7.18
2022-08-25T18:44:16.293Z,16.08
2022-08-25T18:49:22.081Z,12.50
2022-08-25T18:54:32.342Z,10.45
2022-08-25T18:59:43.434Z,8.10
2022-08-25T19:04:53.354Z,11.30
2022-08-25T19:09:59.577Z,8.07
2022-08-25T19:15:08.399Z,6.55
2022-08-25T19:20:14.806Z,7.75
2022-08-25T19:25:21.418Z,5.65
2022-08-25T19:30:30.852Z,6.38
2022-08-25T19:35:46.327Z,9.48
2022-08-25T19:40:52.983Z,9.18
2022-08-25T19:46:00.321Z,6.75
2022-08-25T19:51:06.295Z,5.88
2022-08-25T19:56:17.510Z,10.30
2022-08-25T20:01:24.938Z,9.82
2022-08-25T20:06:31.904Z,9.82
2022-08-25T20:11:38.288Z,12.38
2022-08-25T20:16:46.186Z,9.13
2022-08-25T20:21:57.219Z,10.73
2022-08-25T20:27:03.946Z,11.95
2022-08-25T20:32:11.306Z,10.63
2022-08-25T20:37:17.342Z,9.97
2022-08-25T20:42:25.171Z,7.13
2022-08-25T20:47:33.967Z,8.18
2022-08-25T20:52:43.669Z,12.20
2022-08-25T20:57:50.049Z,11.00
2022-08-25T21:02:57.258Z,9.27
2022-08-25T21:08:03.003Z,7.20
2022-08-25T21:13:09.172Z,9.45
2022-08-25T21:18:16.603Z,9.30
2022-08-25T21:23:22.509Z,11.40
2022-08-25T21:28:28.671Z,11.63
2022-08-25T21:33:36.337Z,8.95
2022-08-25T21:38:43.044Z,8.25
2022-08-25T21:43:50.130Z,12.20
2022-08-25T21:48:57.439Z,10.18
2022-08-25T21:54:13.294Z,6.80
2022-08-25T21:59:22.298Z,9.95
2022-08-25T22:04:30.579Z,7.93
2022-08-25T22:09:37.525Z,9.30
2022-08-25T22:14:43.787Z,7.88
2022-08-25T22:19:53.888Z,10.15
2022-08-25T22:24:59.890Z,10.30
2022-08-25T22:30:06.794Z,10.85
2022-08-25T22:35:14.154Z,9.25
2022-08-25T22:40:20.361Z,8.90
2022-08-25T22:45:27.344Z,10.25
2022-08-25T22:50:36.461Z,15.77
2022-08-25T22:55:45.478Z,35.80
2022-08-25T23:00:52.284Z,34.30
2022-08-25T23:06:00.124Z,32.03
2022-08-25T23:16:13.015Z,27.15
2022-08-25T23:21:41.250Z,32.90
2022-08-25T23:26:51.141Z,31.95
2022-08-25T23:31:57.778Z,19.33
2022-08-25T23:37:06.160Z,18.63
2022-08-25T23:42:11.624Z,17.40
2022-08-25T23:47:17.306Z,19.13
2022-08-25T23:52:24.271Z,17.02
2022-08-25T23:57:30.509Z,33.63
